Big Bend, Colorado
Current Conditions -  °F | °C
As of 10:53 PM on Tuesday 25 Nov 2014 (Local Time) from KLAA Reporting Station
Clear Clear  
Wind Chill: 30°   Ceiling: Unl
Heat Index: 30°   Visibility: 10mi
Dew Point: 18°   Wind: 3mph
Humidity: 61%   Direction: 70°ENE
Pressure: 30.02"   Gusts: NA
Location:  38.1951°N, 102.726°W
Report Text: KLAA 260553Z AUTO 07003KT 10SM CLR M01/M08 A3002 RMK AO2 SLP168 T10111078 10044 21028 53033
Loading
Personal Weather Stations






























Interactive Weather Map New forecast layout! Learn more

10-Day Weather Forecast

Advertisements
Track Severe Weather on mobile